Time;durP1;ratioP1;P1;durP2;ratioP2;P2;SDS_P1;SDS_P2;PMS_P1;PMS_P2;Temp;Humidity;BMP_temperature;BMP_pressure;BME280_temperature;BME280_humidity;BME280_pressure;Samples;Min_cycle;Max_cycle;Signal;HPM_P1;HPM_P2
2022/11/08 00:01:47;;;;;;;13.17;3.20;;;;;;;17.88;100.00;100780.41;4994099;28;20277;-52
2022/11/08 00:04:12;;;;;;;17.57;3.33;;;;;;;18.00;100.00;100784.91;4986718;28;20297;-49
2022/11/08 00:14:53;;;;;;;10.90;3.03;;;;;;;17.20;100.00;100774.88;4990707;28;20273;-51
2022/11/08 00:17:19;;;;;;;11.63;3.03;;;;;;;17.44;100.00;100801.81;4988930;28;20288;-50
2022/11/08 00:19:45;;;;;;;14.80;2.63;;;;;;;17.34;100.00;100773.53;4991314;28;20031;-49
2022/11/08 00:22:11;;;;;;;15.70;2.95;;;;;;;17.51;100.00;100771.94;4988925;28;20284;-51
2022/11/08 00:24:37;;;;;;;13.38;3.10;;;;;;;17.10;100.00;100772.00;4986801;28;20068;-51
2022/11/08 00:27:04;;;;;;;;;;;;;;;17.09;100.00;100773.06;4991232;28;20084;-49
2022/11/08 00:29:29;;;;;;;16.17;4.30;;;;;;;17.45;100.00;100773.72;4988646;28;19940;-50
2022/11/08 00:31:55;;;;;;;11.80;2.60;;;;;;;17.45;100.00;100762.91;4991324;28;20268;-48
2022/11/08 00:34:20;;;;;;;13.80;2.80;;;;;;;17.15;100.00;100772.09;4989496;28;20037;-48
2022/11/08 00:36:45;;;;;;;13.98;3.10;;;;;;;17.37;100.00;100772.22;4990053;28;20031;-52
2022/11/08 00:39:11;;;;;;;13.40;3.15;;;;;;;17.28;100.00;100758.28;4986247;28;20035;-47
2022/11/08 00:41:37;;;;;;;12.37;2.93;;;;;;;17.33;100.00;100766.50;4988659;28;20028;-48
2022/11/08 00:44:02;;;;;;;11.10;3.13;;;;;;;17.30;100.00;100758.88;4990773;28;20318;-54
2022/11/08 00:46:28;;;;;;;14.48;3.63;;;;;;;17.14;100.00;100760.44;4986563;28;20038;-50
2022/11/08 00:48:53;;;;;;;14.43;3.50;;;;;;;17.47;100.00;100756.19;4990837;28;20045;-48
2022/11/08 00:51:19;;;;;;;12.83;2.70;;;;;;;17.75;100.00;100761.78;4987988;28;20313;-52
2022/11/08 00:53:44;;;;;;;15.03;3.13;;;;;;;17.28;100.00;100747.47;4985178;28;20257;-51
2022/11/08 00:56:12;;;;;;;13.00;4.63;;;;;;;17.52;100.00;100755.44;4990053;28;20038;-49
2022/11/08 00:58:37;;;;;;;9.20;2.83;;;;;;;17.36;100.00;100753.56;4990059;28;20035;-53
2022/11/08 01:01:12;;;;;;;14.25;3.67;;;;;;;17.36;100.00;100754.34;4988440;28;20341;-48
2022/11/08 01:03:38;;;;;;;11.83;3.17;;;;;;;17.41;100.00;100761.75;4986528;28;20039;-54
2022/11/08 01:06:05;;;;;;;16.00;3.83;;;;;;;17.34;100.00;100759.19;4990700;28;20296;-47
2022/11/08 01:08:31;;;;;;;15.33;3.70;;;;;;;17.43;100.00;100760.47;4990605;28;20026;-52
2022/11/08 01:11:01;;;;;;;9.25;3.75;;;;;;;17.13;100.00;100748.00;5004359;28;20281;-48
2022/11/08 01:13:27;;;;;;;17.13;3.67;;;;;;;17.41;100.00;100757.16;4990629;28;20039;-49
2022/11/08 01:15:53;;;;;;;13.82;3.80;;;;;;;17.01;100.00;100758.84;4987735;28;20289;-51
2022/11/08 01:18:19;;;;;;;9.70;2.97;;;;;;;17.18;100.00;100752.69;4990446;28;20030;-49
2022/11/08 01:20:46;;;;;;;14.13;3.70;;;;;;;17.11;100.00;100757.44;4990363;28;20035;-55
2022/11/08 01:23:12;;;;;;;11.27;3.00;;;;;;;17.28;100.00;100750.16;4991361;28;20284;-49
2022/11/08 01:25:43;;;;;;;14.75;3.78;;;;;;;17.20;100.00;100745.16;4988422;28;20269;-48
2022/11/08 01:28:10;;;;;;;15.73;3.33;;;;;;;17.16;100.00;100739.41;4992599;28;20049;-54
2022/11/08 01:30:38;;;;;;;10.50;3.10;;;;;;;17.24;100.00;100740.91;4986120;28;20265;-53
2022/11/08 01:33:04;;;;;;;14.67;3.50;;;;;;;16.87;100.00;100736.69;4987863;28;20284;-50
2022/11/08 01:35:31;;;;;;;11.87;3.43;;;;;;;16.94;100.00;100733.84;4989711;28;20383;-49
2022/11/08 01:37:58;;;;;;;9.67;2.97;;;;;;;17.01;100.00;100726.44;4985012;28;20333;-50
2022/11/08 01:40:24;;;;;;;16.17;3.92;;;;;;;16.70;100.00;100731.22;4987831;28;20393;-51
2022/11/08 01:42:49;;;;;;;11.10;3.17;;;;;;;16.77;100.00;100725.69;4990103;28;20094;-51
2022/11/08 01:45:54;;;;;;;11.10;3.37;;;;;;;17.02;100.00;100717.28;4989000;28;20038;-48
2022/11/08 01:48:19;;;;;;;12.07;3.30;;;;;;;16.76;100.00;100707.84;4987771;28;20272;-49
2022/11/08 01:50:46;;;;;;;8.48;2.70;;;;;;;16.81;100.00;100710.66;4987417;28;20303;-51
2022/11/08 01:53:12;;;;;;;10.75;3.03;;;;;;;16.92;100.00;100706.25;4987957;28;20058;-51
2022/11/08 01:55:38;;;;;;;13.13;3.42;;;;;;;17.14;100.00;100702.91;4987229;28;20038;-50
2022/11/08 01:58:17;;;;;;;11.82;3.30;;;;;;;16.82;100.00;100692.53;4985061;28;20051;-47
2022/11/08 02:00:43;;;;;;;16.90;3.80;;;;;;;16.71;100.00;100695.06;4990287;28;20058;-48
2022/11/08 02:03:15;;;;;;;16.88;3.35;;;;;;;16.53;100.00;100687.13;4990508;28;20276;-50
2022/11/08 02:05:40;;;;;;;8.90;3.87;;;;;;;16.53;100.00;100687.13;4987210;28;20046;-49
2022/11/08 02:08:26;;;;;;;17.08;3.88;;;;;;;16.88;100.00;100672.69;4989400;28;20268;-52
2022/11/08 02:10:52;;;;;;;9.03;3.10;;;;;;;16.63;100.00;100679.25;4986896;28;20043;-51
2022/11/08 02:13:19;;;;;;;;;;;;;;;16.56;100.00;100673.16;4984007;28;20272;-51
2022/11/08 02:15:45;;;;;;;18.85;3.63;;;;;;;16.47;100.00;100672.69;4986998;28;19950;-52
2022/11/08 02:18:12;;;;;;;11.38;3.25;;;;;;;16.41;100.00;100654.78;4990003;28;20064;-49
2022/11/08 02:20:49;;;;;;;13.90;4.13;;;;;;;16.26;100.00;100658.81;4987815;28;20045;-50
2022/11/08 02:23:50;;;;;;;13.20;3.73;;;;;;;16.51;100.00;100670.34;4988368;28;20299;-51
2022/11/08 02:26:19;;;;;;;8.37;3.47;;;;;;;16.48;100.00;100655.44;4987535;28;20260;-49
2022/11/08 02:28:46;;;;;;;11.10;3.80;;;;;;;16.33;100.00;100651.41;4988843;28;20344;-53
2022/11/08 02:31:14;;;;;;;10.70;4.43;;;;;;;16.36;100.00;100655.47;4988164;28;20277;-50
2022/11/08 02:33:41;;;;;;;13.43;3.40;;;;;;;16.48;100.00;100656.28;4987934;28;20268;-51
2022/11/08 02:36:09;;;;;;;11.60;3.70;;;;;;;16.40;100.00;100656.66;4987012;28;20344;-54
2022/11/08 02:38:39;;;;;;;12.47;3.50;;;;;;;16.31;100.00;100639.19;4986671;28;20095;-49
2022/11/08 02:41:05;;;;;;;12.60;3.77;;;;;;;16.54;100.00;100645.59;4985234;28;20759;-51
2022/11/08 02:43:31;;;;;;;12.83;3.40;;;;;;;16.28;100.00;100632.41;4984403;28;20309;-50
2022/11/08 02:45:58;;;;;;;17.20;4.33;;;;;;;16.49;100.00;100628.22;4988650;28;20269;-48
2022/11/08 02:48:24;;;;;;;;;;;;;;;16.22;100.00;100637.94;4987164;28;20292;-50
2022/11/08 02:50:50;;;;;;;16.33;3.73;;;;;;;16.40;100.00;100635.09;4989283;28;19914;-51
2022/11/08 02:53:16;;;;;;;9.15;3.25;;;;;;;16.24;100.00;100630.44;4968104;29;20316;-51
2022/11/08 02:55:41;;;;;;;13.50;3.63;;;;;;;16.41;100.00;100636.72;4970161;28;20038;-51
2022/11/08 02:58:07;;;;;;;15.35;3.75;;;;;;;16.13;100.00;100622.09;4965332;28;20043;-50
2022/11/08 03:00:33;;;;;;;10.45;3.80;;;;;;;16.20;100.00;100624.69;4968691;28;20035;-50
2022/11/08 03:02:59;;;;;;;11.25;3.58;;;;;;;16.17;100.00;100615.19;4969711;28;20039;-51
2022/11/08 03:05:26;;;;;;;9.10;3.00;;;;;;;16.31;100.00;100614.91;4967473;28;20046;-51
2022/11/08 03:07:53;;;;;;;11.43;3.20;;;;;;;16.40;100.00;100618.88;4969311;28;20270;-48
2022/11/08 03:10:19;;;;;;;8.82;2.65;;;;;;;16.38;100.00;100617.47;4971984;28;20412;-47
2022/11/08 03:12:44;;;;;;;10.20;3.50;;;;;;;16.11;100.00;100604.53;4970236;28;20043;-49
2022/11/08 03:15:12;;;;;;;14.33;2.87;;;;;;;16.42;100.00;100594.34;4969030;28;20038;-49
2022/11/08 03:17:39;;;;;;;9.33;2.90;;;;;;;16.52;100.00;100586.47;4974404;29;20365;-50
2022/11/08 03:20:05;;;;;;;7.70;2.72;;;;;;;16.56;100.00;100600.28;4975409;28;20265;-51
2022/11/08 03:22:31;;;;;;;10.50;3.10;;;;;;;16.31;100.00;100587.94;4973660;28;20050;-52
2022/11/08 03:24:57;;;;;;;13.77;3.10;;;;;;;16.63;100.00;100593.66;4973343;28;20285;-48
2022/11/08 03:27:23;;;;;;;11.60;3.35;;;;;;;16.49;100.00;100587.75;4973474;28;20115;-48
2022/11/08 03:29:48;;;;;;;12.30;3.00;;;;;;;16.63;100.00;100571.25;4973030;28;20044;-49
2022/11/08 03:32:14;;;;;;;11.65;3.25;;;;;;;16.37;100.00;100565.38;4968751;28;20039;-53
2022/11/08 03:34:41;;;;;;;8.40;3.65;;;;;;;16.63;100.00;100571.25;4971880;29;20054;-51
2022/11/08 03:37:09;;;;;;;7.82;2.33;;;;;;;16.26;100.00;100559.00;4972093;28;20036;-49
2022/11/08 03:39:34;;;;;;;12.17;3.83;;;;;;;16.62;100.00;100562.34;4972735;28;20035;-48
2022/11/08 03:42:03;;;;;;;13.15;3.13;;;;;;;16.18;100.00;100549.38;4971297;29;20269;-50
2022/11/08 03:44:30;;;;;;;16.03;3.63;;;;;;;16.35;100.00;100545.91;4972721;28;20039;-48
2022/11/08 03:46:56;;;;;;;12.53;3.57;;;;;;;16.47;100.00;100538.59;4972953;28;20269;-52
2022/11/08 03:49:22;;;;;;;13.43;4.22;;;;;;;16.55;100.00;100533.84;4974998;28;20271;-46
2022/11/08 03:51:48;;;;;;;10.53;2.80;;;;;;;16.47;100.00;100530.50;4976690;28;20051;-50
2022/11/08 03:54:13;;;;;;;8.38;2.72;;;;;;;16.44;100.00;100527.44;4994143;28;20062;-49
2022/11/08 03:56:39;;;;;;;11.38;2.85;;;;;;;16.33;100.00;100518.34;4990164;28;20062;-50
2022/11/08 03:59:04;;;;;;;8.27;2.50;;;;;;;16.20;100.00;100514.06;4985855;28;20098;-53
2022/11/08 04:01:29;;;;;;;10.10;3.00;;;;;;;16.54;100.00;100524.94;4990163;28;20280;-53
2022/11/08 04:03:55;;;;;;;10.27;2.90;;;;;;;16.54;100.00;100518.72;4986633;28;20284;-53
2022/11/08 04:06:20;;;;;;;5.20;2.13;;;;;;;16.56;100.00;100508.50;4991627;28;20290;-51
2022/11/08 04:08:46;;;;;;;15.27;2.77;;;;;;;16.27;100.00;100495.88;4990327;28;20049;-50
2022/11/08 04:16:40;;;;;;;8.17;2.37;;;;;;;16.46;100.00;100499.16;4987797;28;20345;-51
2022/11/08 04:21:52;;;;;;;11.37;2.60;;;;;;;16.23;100.00;100477.69;4992692;28;20344;-50
2022/11/08 04:24:18;;;;;;;11.33;3.17;;;;;;;16.14;100.00;100485.34;4989904;28;20280;-51
2022/11/08 04:26:44;;;;;;;9.35;2.53;;;;;;;16.21;100.00;100486.03;4987008;28;20279;-52
2022/11/08 04:29:10;;;;;;;8.53;3.10;;;;;;;16.11;100.00;100485.84;4989029;28;20047;-52
2022/11/08 04:31:36;;;;;;;7.22;2.60;;;;;;;16.54;100.00;100486.31;4993398;28;20273;-51
2022/11/08 04:34:02;;;;;;;6.70;2.60;;;;;;;16.77;100.00;100479.97;4988352;28;20039;-51
2022/11/08 04:36:28;;;;;;;8.57;2.97;;;;;;;16.38;100.00;100477.97;4993045;28;20269;-54
2022/11/08 04:38:53;;;;;;;8.60;2.50;;;;;;;16.56;100.00;100465.31;4991780;28;20034;-51
2022/11/08 04:41:22;;;;;;;6.67;2.00;;;;;;;16.72;100.00;100474.47;4991759;28;20345;-49
2022/11/08 04:43:49;;;;;;;8.17;2.40;;;;;;;16.41;100.00;100479.34;4989320;28;20314;-53
2022/11/08 04:46:18;;;;;;;6.93;2.43;;;;;;;16.51;100.00;100470.63;4989586;28;20265;-52
2022/11/08 04:48:44;;;;;;;4.70;2.07;;;;;;;16.24;100.00;100469.34;4990635;28;20327;-51
2022/11/08 04:51:16;;;;;;;9.82;2.42;;;;;;;16.52;100.00;100466.84;4989509;28;20300;-52
2022/11/08 04:53:41;;;;;;;8.87;2.47;;;;;;;16.30;100.00;100475.66;4990292;28;20035;-50
2022/11/08 04:56:09;;;;;;;6.07;2.37;;;;;;;16.19;100.00;100462.00;4990643;28;20309;-49
2022/11/08 04:58:37;;;;;;;7.53;2.33;;;;;;;16.07;100.00;100469.31;4992147;28;20047;-48
2022/11/08 05:01:04;;;;;;;7.50;2.47;;;;;;;16.16;100.00;100449.00;4991116;28;20295;-50
2022/11/08 05:03:30;;;;;;;8.00;2.40;;;;;;;16.14;100.00;100448.41;4989282;28;20302;-49
2022/11/08 05:06:04;;;;;;;8.13;2.83;;;;;;;16.15;100.00;100436.56;4990787;28;20310;-49
2022/11/08 05:08:30;;;;;;;8.87;2.50;;;;;;;15.88;100.00;100442.53;4987177;28;20015;-50
2022/11/08 05:11:05;;;;;;;7.23;2.20;;;;;;;15.80;100.00;100440.19;5011322;28;20302;-48
2022/11/08 05:13:31;;;;;;;7.40;1.83;;;;;;;16.19;100.00;100410.75;4988772;28;20265;-51
2022/11/08 05:16:02;;;;;;;9.15;2.50;;;;;;;15.86;100.00;100420.34;4988367;28;20281;-51
2022/11/08 05:18:30;;;;;;;5.30;2.13;;;;;;;15.87;100.00;100419.28;4987447;28;20051;-51
2022/11/08 05:23:41;;;;;;;7.37;1.87;;;;;;;16.02;100.00;100417.97;4987070;28;20285;-49
2022/11/08 05:26:07;;;;;;;6.28;2.05;;;;;;;15.80;100.00;100405.16;4989972;28;20336;-52
2022/11/08 05:28:34;;;;;;;9.38;2.85;;;;;;;15.77;100.00;100405.63;4988972;28;20059;-50
2022/11/08 05:30:59;;;;;;;6.45;2.00;;;;;;;15.53;100.00;100407.59;4985062;28;20037;-52
2022/11/08 05:33:24;;;;;;;7.13;1.63;;;;;;;15.68;100.00;100404.38;4990635;28;20031;-49
2022/11/08 05:35:51;;;;;;;12.02;2.22;;;;;;;15.92;100.00;100407.81;4988781;28;20061;-51
2022/11/08 05:38:16;;;;;;;8.57;2.30;;;;;;;15.77;100.00;100413.72;4988014;28;20046;-48
2022/11/08 05:40:42;;;;;;;3.38;1.60;;;;;;;15.88;100.00;100402.09;4992132;28;20015;-51
2022/11/08 05:43:08;;;;;;;7.50;2.17;;;;;;;15.90;100.00;100399.97;4988449;28;20050;-48
2022/11/08 05:45:34;;;;;;;6.40;2.33;;;;;;;15.86;100.00;100392.59;4990045;28;20277;-50
2022/11/08 05:48:02;;;;;;;10.57;2.38;;;;;;;15.80;100.00;100391.66;4988578;28;20058;-53
2022/11/08 05:50:30;;;;;;;8.43;1.53;;;;;;;15.62;100.00;100387.31;4989529;28;20085;-53
2022/11/08 05:53:03;;;;;;;6.23;2.53;;;;;;;15.90;100.00;100383.78;4986321;28;20404;-51
2022/11/08 05:55:29;;;;;;;10.32;3.17;;;;;;;16.15;100.00;100387.19;4990525;28;20277;-52
2022/11/08 05:57:55;;;;;;;7.80;2.10;;;;;;;15.65;100.00;100381.44;4987070;28;20050;-52
2022/11/08 06:00:20;;;;;;;8.68;2.10;;;;;;;15.88;100.00;100382.38;4991841;28;20096;-52
2022/11/08 06:02:47;;;;;;;6.85;2.22;;;;;;;16.19;100.00;100378.38;4987888;28;20035;-50
2022/11/08 06:05:12;;;;;;;11.43;2.23;;;;;;;16.00;100.00;100388.53;4986573;28;20046;-51
2022/11/08 06:07:38;;;;;;;10.57;1.98;;;;;;;15.82;100.00;100391.44;4990011;28;20121;-49
2022/11/08 06:10:04;;;;;;;5.80;2.00;;;;;;;16.00;100.00;100382.34;4991624;28;20034;-52
2022/11/08 06:12:29;;;;;;;13.95;2.30;;;;;;;15.95;100.00;100393.84;4989758;28;20038;-52
2022/11/08 06:14:55;;;;;;;6.63;1.95;;;;;;;15.81;100.00;100393.31;4988501;28;20125;-54
2022/11/08 06:17:20;;;;;;;7.57;2.30;;;;;;;15.74;100.00;100389.94;4987146;28;20035;-52
2022/11/08 06:19:45;;;;;;;9.40;2.27;;;;;;;15.67;100.00;100383.88;4987355;28;20054;-52
2022/11/08 06:22:11;;;;;;;6.13;1.80;;;;;;;15.72;100.00;100389.38;4991529;28;20045;-50
2022/11/08 06:24:36;;;;;;;6.07;2.00;;;;;;;15.67;100.00;100387.38;4991120;28;20027;-50
2022/11/08 06:27:02;;;;;;;6.37;2.00;;;;;;;15.96;100.00;100387.41;4988648;28;20084;-54
2022/11/08 06:29:27;;;;;;;7.75;2.78;;;;;;;15.75;100.00;100387.00;4988243;28;20034;-53
2022/11/08 06:31:53;;;;;;;8.27;1.80;;;;;;;15.61;100.00;100375.69;4988369;28;20102;-53
2022/11/08 06:34:19;;;;;;;7.72;2.22;;;;;;;15.54;100.00;100391.19;4991316;28;20027;-50
2022/11/08 06:36:45;;;;;;;5.97;2.05;;;;;;;15.77;100.00;100375.97;4989489;28;20125;-50
2022/11/08 06:39:11;;;;;;;14.25;2.42;;;;;;;16.00;100.00;100371.56;4988679;28;20043;-53
2022/11/08 06:41:36;;;;;;;5.93;2.03;;;;;;;15.85;100.00;100372.88;4988933;28;20049;-49
2022/11/08 06:44:02;;;;;;;9.67;1.93;;;;;;;15.77;100.00;100363.31;4988776;28;20047;-51
2022/11/08 06:46:28;;;;;;;;;;;;;;;15.75;100.00;100372.72;4988395;28;20027;-53
2022/11/08 06:48:53;;;;;;;8.93;2.03;;;;;;;15.74;100.00;100371.06;4989409;28;19945;-52
2022/11/08 06:51:19;;;;;;;7.70;2.53;;;;;;;15.97;100.00;100372.06;5008317;28;20055;-54
2022/11/08 06:53:44;;;;;;;4.10;1.87;;;;;;;15.92;100.00;100361.97;4990581;28;20027;-51
2022/11/08 06:56:10;;;;;;;4.67;1.53;;;;;;;15.96;100.00;100365.81;4993054;28;20053;-51
2022/11/08 06:58:36;;;;;;;6.67;2.33;;;;;;;15.82;100.00;100370.69;4987929;28;20030;-54
2022/11/08 07:01:04;;;;;;;7.60;2.17;;;;;;;16.15;100.00;100379.94;4992756;28;20287;-50
2022/11/08 07:03:30;;;;;;;5.20;2.00;;;;;;;16.61;100.00;100385.22;4986496;28;20285;-52
2022/11/08 07:05:55;;;;;;;7.38;2.33;;;;;;;16.36;100.00;100385.63;4990554;28;20318;-50
2022/11/08 07:08:20;;;;;;;4.70;2.13;;;;;;;16.13;100.00;100389.31;4988256;28;20050;-53
2022/11/08 07:10:46;;;;;;;8.60;2.30;;;;;;;16.07;100.00;100383.00;4991109;28;20027;-53
2022/11/08 07:13:12;;;;;;;5.13;2.42;;;;;;;16.20;100.00;100380.00;4992200;28;20050;-52
2022/11/08 07:15:39;;;;;;;5.37;1.77;;;;;;;15.88;100.00;100379.69;4994906;28;20050;-52
2022/11/08 07:18:10;;;;;;;9.32;2.38;;;;;;;16.24;100.00;100376.81;4989386;28;20260;-53
2022/11/08 07:20:37;;;;;;;3.67;2.10;;;;;;;16.12;100.00;100388.47;4990533;28;20039;-51
2022/11/08 07:23:03;;;;;;;6.17;2.67;;;;;;;16.32;100.00;100379.09;4987666;28;20277;-51
2022/11/08 07:25:29;;;;;;;5.83;2.20;;;;;;;16.41;100.00;100385.75;4985926;28;20284;-52
2022/11/08 07:27:57;;;;;;;3.90;1.90;;;;;;;15.99;100.00;100376.13;4990776;28;20269;-50
2022/11/08 07:30:23;;;;;;;7.07;2.23;;;;;;;16.20;100.00;100376.47;4985896;28;20265;-53
2022/11/08 07:32:49;;;;;;;3.90;2.05;;;;;;;16.70;100.00;100380.22;4990680;28;20281;-49
2022/11/08 07:35:15;;;;;;;8.20;2.17;;;;;;;16.56;100.00;100398.66;4987008;28;20034;-49
2022/11/08 07:37:40;;;;;;;2.63;1.60;;;;;;;16.13;100.00;100373.94;4991263;28;20057;-49
2022/11/08 07:40:07;;;;;;;4.57;2.42;;;;;;;16.29;100.00;100368.78;4990154;28;20102;-48
2022/11/08 07:42:37;;;;;;;4.03;1.97;;;;;;;16.54;100.00;100371.09;4991334;28;20039;-48
2022/11/08 07:45:07;;;;;;;4.10;2.00;;;;;;;16.35;100.00;100348.91;4989660;28;20291;-52
2022/11/08 07:47:32;;;;;;;5.70;1.90;;;;;;;16.20;100.00;100336.00;4990349;28;20261;-49
2022/11/08 07:49:58;;;;;;;6.60;2.90;;;;;;;16.53;100.00;100350.56;4991550;28;20280;-50
2022/11/08 07:52:23;;;;;;;11.60;2.37;;;;;;;16.63;100.00;100353.41;4989932;28;20078;-49
2022/11/08 07:54:49;;;;;;;9.27;2.90;;;;;;;16.97;100.00;100355.22;4991368;28;20027;-52
2022/11/08 07:57:15;;;;;;;9.47;2.77;;;;;;;16.69;100.00;100361.56;4991295;28;20107;-54
2022/11/08 07:59:40;;;;;;;6.00;1.70;;;;;;;16.40;100.00;100354.41;4989877;28;20039;-54
2022/11/08 08:02:08;;;;;;;6.77;1.97;;;;;;;16.32;100.00;100357.50;4988064;28;20448;-51
2022/11/08 08:04:34;;;;;;;6.10;2.10;;;;;;;16.48;100.00;100358.56;4991338;28;20039;-52
2022/11/08 08:06:59;;;;;;;4.73;2.37;;;;;;;16.62;100.00;100357.16;4991935;28;20319;-54
2022/11/08 08:09:25;;;;;;;5.93;1.77;;;;;;;16.68;100.00;100365.34;4991944;28;20269;-48
2022/11/08 08:11:50;;;;;;;7.32;2.13;;;;;;;16.47;100.00;100359.63;4989951;28;20031;-50
2022/11/08 08:14:16;;;;;;;4.93;1.97;;;;;;;16.62;100.00;100361.75;4987534;28;20027;-51
2022/11/08 08:16:41;;;;;;;5.13;2.05;;;;;;;16.52;100.00;100364.28;4991831;28;20273;-49
2022/11/08 08:19:07;;;;;;;5.35;2.25;;;;;;;16.89;100.00;100366.44;4991360;28;20031;-49
2022/11/08 08:21:32;;;;;;;4.28;1.88;;;;;;;16.72;100.00;100380.78;4989427;28;20035;-50
2022/11/08 08:23:58;;;;;;;6.22;2.03;;;;;;;17.16;100.00;100363.03;4993454;28;20046;-48
2022/11/08 08:26:24;;;;;;;4.53;1.93;;;;;;;17.05;100.00;100373.69;4993349;28;20049;-52
2022/11/08 08:28:49;;;;;;;4.68;2.30;;;;;;;16.59;100.00;100376.56;4973431;28;20289;-50
2022/11/08 08:31:15;;;;;;;4.55;1.90;;;;;;;16.88;100.00;100381.81;4989613;28;20058;-53
2022/11/08 08:33:42;;;;;;;10.90;1.88;;;;;;;17.06;100.00;100378.03;4989284;28;20041;-50
2022/11/08 08:36:08;;;;;;;8.00;2.30;;;;;;;17.11;100.00;100379.19;4992511;28;20035;-50
2022/11/08 08:38:34;;;;;;;7.25;2.42;;;;;;;16.84;100.00;100388.78;4986786;28;20297;-49
2022/11/08 08:41:01;;;;;;;6.38;2.22;;;;;;;17.11;100.00;100417.81;4985186;28;20030;-50
2022/11/08 08:43:31;;;;;;;7.70;2.50;;;;;;;17.17;100.00;100418.72;4987876;28;20035;-50
2022/11/08 08:46:02;;;;;;;7.97;1.90;;;;;;;17.37;100.00;100407.34;4993336;28;20268;-52
2022/11/08 08:48:27;;;;;;;5.73;2.20;;;;;;;17.56;100.00;100388.09;4986033;28;20295;-50
2022/11/08 08:50:53;;;;;;;6.55;2.10;;;;;;;17.83;100.00;100390.81;4988485;28;20319;-51
2022/11/08 08:53:20;;;;;;;7.67;2.27;;;;;;;17.56;100.00;100372.69;4993148;28;20098;-48
2022/11/08 08:55:46;;;;;;;7.05;2.20;;;;;;;17.90;100.00;100374.41;4987213;28;20054;-52
2022/11/08 08:58:12;;;;;;;4.47;2.27;;;;;;;17.87;100.00;100370.31;4986398;28;20042;-47
2022/11/08 09:00:38;;;;;;;7.63;2.00;;;;;;;18.03;100.00;100374.00;4990057;28;20302;-51
2022/11/08 09:03:06;;;;;;;7.47;2.08;;;;;;;17.26;100.00;100356.94;4990429;28;20042;-52
2022/11/08 09:05:33;;;;;;;5.80;2.30;;;;;;;17.27;100.00;100356.69;4989943;28;20115;-49
2022/11/08 09:07:58;;;;;;;;;;;;;;;17.19;100.00;100365.25;4988121;28;20269;-49
2022/11/08 09:10:24;;;;;;;3.87;1.70;;;;;;;17.03;100.00;100365.03;4988193;28;19932;-50
2022/11/08 09:12:51;;;;;;;4.72;2.05;;;;;;;17.50;100.00;100362.88;4987581;28;20038;-47
2022/11/08 09:15:17;;;;;;;6.53;1.98;;;;;;;17.94;100.00;100375.50;4990058;28;20057;-49
2022/11/08 09:17:43;;;;;;;9.77;1.92;;;;;;;17.94;100.00;100366.56;4978350;28;20090;-53
2022/11/08 09:20:10;;;;;;;5.25;1.92;;;;;;;18.28;100.00;100359.03;4990381;28;20069;-51
2022/11/08 09:22:36;;;;;;;6.13;2.00;;;;;;;18.33;100.00;100355.56;4991047;28;20046;-47
2022/11/08 09:25:03;;;;;;;5.65;1.92;;;;;;;18.24;100.00;100352.53;4990031;28;20272;-50
2022/11/08 09:27:30;;;;;;;5.55;1.88;;;;;;;18.29;100.00;100355.25;4990826;28;20043;-48
2022/11/08 09:29:57;;;;;;;4.43;1.87;;;;;;;18.42;100.00;100351.28;4987241;28;20053;-48
2022/11/08 09:32:24;;;;;;;3.23;1.80;;;;;;;18.59;100.00;100363.88;4988496;28;20291;-49
2022/11/08 09:34:50;;;;;;;5.90;1.80;;;;;;;18.38;100.00;100347.47;4990524;28;20268;-51
2022/11/08 09:37:16;;;;;;;6.57;1.73;;;;;;;18.22;100.00;100345.72;4988349;28;20094;-50
2022/11/08 09:39:42;;;;;;;5.95;1.75;;;;;;;18.05;100.00;100365.63;4990255;28;20273;-52
2022/11/08 09:42:38;;;;;;;8.63;1.65;;;;;;;18.34;100.00;100362.63;4984578;28;20046;-51
2022/11/08 09:45:52;;;;;;;4.60;1.83;;;;;;;18.46;100.00;100386.78;4988749;28;20046;-49
2022/11/08 09:48:35;;;;;;;11.20;2.10;;;;;;;18.42;100.00;100391.91;4983877;28;20341;-49
2022/11/08 09:51:20;;;;;;;8.90;2.77;;;;;;;18.25;100.00;100402.06;4987403;28;20272;-49
2022/11/08 09:53:51;;;;;;;4.07;2.17;;;;;;;18.63;100.00;100373.94;4987879;28;20333;-54
2022/11/08 09:56:24;;;;;;;8.37;2.40;;;;;;;18.73;100.00;100373.19;4988368;28;20284;-51
2022/11/08 09:59:00;;;;;;;3.90;1.80;;;;;;;18.40;100.00;100368.88;4982918;28;20042;-50
2022/11/08 10:01:29;;;;;;;;;;;;;;;18.39;100.00;100357.22;4986674;28;20060;-51
2022/11/08 10:03:58;;;;;;;4.70;1.70;;;;;;;18.61;100.00;100351.72;4987836;28;19929;-47
2022/11/08 10:06:26;;;;;;;5.43;2.50;;;;;;;18.71;100.00;100364.50;4988368;28;20039;-49
2022/11/08 10:09:12;;;;;;;9.10;2.00;;;;;;;18.26;100.00;100369.31;4985042;28;21381;-50
2022/11/08 10:12:01;;;;;;;4.87;1.97;;;;;;;19.05;100.00;100366.06;4986793;28;20039;-50
2022/11/08 10:15:01;;;;;;;7.63;1.70;;;;;;;18.15;100.00;100373.81;4986948;28;20064;-50
2022/11/08 10:17:55;;;;;;;3.80;1.40;;;;;;;18.97;100.00;100372.75;4983558;28;20039;-53
2022/11/08 10:20:35;;;;;;;6.33;1.80;;;;;;;18.56;100.00;100383.34;4983522;28;20269;-52
2022/11/08 10:23:17;;;;;;;4.27;1.50;;;;;;;18.66;100.00;100386.09;4987310;28;20043;-49
2022/11/08 10:26:04;;;;;;;6.37;1.97;;;;;;;19.20;100.00;100373.44;4984374;28;20094;-51
2022/11/08 10:28:35;;;;;;;5.13;2.00;;;;;;;18.91;100.00;100371.09;4985569;28;20053;-52
2022/11/08 10:31:02;;;;;;;6.07;1.87;;;;;;;18.73;100.00;100384.00;4989628;28;20031;-50
2022/11/08 10:33:33;;;;;;;2.90;1.43;;;;;;;18.45;100.00;100372.47;4986866;28;20034;-50
2022/11/08 10:36:12;;;;;;;4.50;1.60;;;;;;;18.92;100.00;100375.44;4989640;28;20031;-51
2022/11/08 10:38:51;;;;;;;8.70;2.10;;;;;;;18.92;100.00;100376.25;4989521;28;20053;-52
2022/11/08 10:41:24;;;;;;;5.77;1.87;;;;;;;19.47;100.00;100372.44;4990775;28;20043;-48
2022/11/08 10:44:14;;;;;;;7.37;1.80;;;;;;;19.12;100.00;100379.34;4989500;28;20039;-52
2022/11/08 10:46:42;;;;;;;5.70;1.60;;;;;;;19.13;100.00;100373.69;4985766;28;20030;-48
2022/11/08 10:49:30;;;;;;;5.70;2.07;;;;;;;19.59;100.00;100373.00;4988463;28;20038;-48
2022/11/08 10:51:58;;;;;;;5.93;1.80;;;;;;;19.43;100.00;100363.22;4984844;28;20039;-51
2022/11/08 10:54:50;;;;;;;4.80;1.57;;;;;;;18.97;100.00;100369.22;4987912;28;20065;-49
2022/11/08 10:57:21;;;;;;;4.13;1.83;;;;;;;18.71;100.00;100390.75;4985850;28;20185;-50
2022/11/08 10:59:46;;;;;;;6.53;2.03;;;;;;;19.27;100.00;100373.19;4982363;28;20034;-50
2022/11/08 11:02:22;;;;;;;10.05;2.15;;;;;;;19.32;100.00;100386.78;4985694;28;20043;-53
2022/11/08 11:04:49;;;;;;;11.07;2.03;;;;;;;18.68;100.00;100356.88;4984351;28;20035;-50
2022/11/08 11:07:26;;;;;;;3.47;1.57;;;;;;;18.68;100.00;100367.69;4986314;28;20137;-51
2022/11/08 11:09:51;;;;;;;5.40;2.07;;;;;;;19.47;100.00;100375.97;4983506;28;20050;-54
2022/11/08 11:12:17;;;;;;;3.95;1.90;;;;;;;19.59;100.00;100369.50;5008010;28;20034;-50
2022/11/08 11:14:42;;;;;;;8.48;1.88;;;;;;;19.43;100.00;100360.50;4988421;28;20094;-52
2022/11/08 11:17:17;;;;;;;5.53;1.80;;;;;;;19.21;100.00;100337.13;4984993;28;20031;-51
2022/11/08 11:19:53;;;;;;;8.80;1.90;;;;;;;19.15;100.00;100349.84;4989254;28;20062;-53
2022/11/08 11:22:31;;;;;;;8.13;2.33;;;;;;;19.62;100.00;100336.41;4986207;28;20035;-52
2022/11/08 11:25:05;;;;;;;6.00;1.73;;;;;;;19.26;100.00;100329.00;4985231;28;20070;-50
2022/11/08 11:27:35;;;;;;;5.93;2.13;;;;;;;19.26;100.00;100337.13;4986382;28;20046;-51
2022/11/08 11:30:23;;;;;;;4.87;2.10;;;;;;;19.33;100.00;100369.41;4983813;28;20037;-49
2022/11/08 11:32:55;;;;;;;3.60;1.77;;;;;;;19.70;100.00;100324.22;4985630;28;20031;-47
2022/11/08 11:35:23;;;;;;;6.17;1.57;;;;;;;18.60;100.00;100323.00;4986604;28;20087;-50
2022/11/08 11:37:50;;;;;;;8.37;1.73;;;;;;;18.68;100.00;100334.41;4986066;28;20039;-50
2022/11/08 11:40:39;;;;;;;3.67;1.40;;;;;;;19.02;100.00;100329.47;4992268;28;20057;-52
2022/11/08 11:43:27;;;;;;;7.03;2.10;;;;;;;20.16;100.00;100323.44;4987669;28;20035;-52